sensor_id;sensor_type;location;lat;lon;timestamp;P1;durP1;ratioP1;P2;durP2;ratioP2
3647;SDS011;1840;48.892;15.312;2024-03-25T00:02:00;1.43;;;1.30;;
3647;SDS011;1840;48.892;15.312;2024-03-25T00:04:26;2.00;;;1.40;;
3647;SDS011;1840;48.892;15.312;2024-03-25T00:06:53;2.00;;;1.70;;
3647;SDS011;1840;48.892;15.312;2024-03-25T00:09:19;3.57;;;1.83;;
3647;SDS011;1840;48.892;15.312;2024-03-25T00:11:47;1.70;;;1.40;;
3647;SDS011;1840;48.892;15.312;2024-03-25T00:14:13;2.77;;;1.60;;
3647;SDS011;1840;48.892;15.312;2024-03-25T00:16:41;1.87;;;1.60;;
3647;SDS011;1840;48.892;15.312;2024-03-25T00:19:07;2.53;;;1.50;;
3647;SDS011;1840;48.892;15.312;2024-03-25T00:21:34;1.93;;;1.40;;
3647;SDS011;1840;48.892;15.312;2024-03-25T00:24:01;1.50;;;1.40;;
3647;SDS011;1840;48.892;15.312;2024-03-25T00:26:29;2.70;;;1.40;;
3647;SDS011;1840;48.892;15.312;2024-03-25T00:28:56;1.60;;;1.30;;
3647;SDS011;1840;48.892;15.312;2024-03-25T00:31:23;1.73;;;1.43;;
3647;SDS011;1840;48.892;15.312;2024-03-25T00:33:50;1.90;;;1.30;;
3647;SDS011;1840;48.892;15.312;2024-03-25T00:36:17;1.60;;;1.40;;
3647;SDS011;1840;48.892;15.312;2024-03-25T00:38:44;1.60;;;1.40;;
3647;SDS011;1840;48.892;15.312;2024-03-25T00:41:11;2.17;;;1.40;;
3647;SDS011;1840;48.892;15.312;2024-03-25T00:43:37;1.33;;;1.13;;
3647;SDS011;1840;48.892;15.312;2024-03-25T00:46:04;1.73;;;1.23;;
3647;SDS011;1840;48.892;15.312;2024-03-25T00:48:30;1.83;;;1.30;;
3647;SDS011;1840;48.892;15.312;2024-03-25T00:50:58;1.80;;;1.50;;
3647;SDS011;1840;48.892;15.312;2024-03-25T00:53:24;2.00;;;1.30;;
3647;SDS011;1840;48.892;15.312;2024-03-25T00:55:51;1.53;;;1.17;;
3647;SDS011;1840;48.892;15.312;2024-03-25T00:58:17;1.87;;;1.33;;
3647;SDS011;1840;48.892;15.312;2024-03-25T01:00:45;1.67;;;1.00;;
3647;SDS011;1840;48.892;15.312;2024-03-25T01:03:11;1.50;;;1.23;;
3647;SDS011;1840;48.892;15.312;2024-03-25T01:05:38;1.47;;;1.10;;
3647;SDS011;1840;48.892;15.312;2024-03-25T01:08:05;1.93;;;1.60;;
3647;SDS011;1840;48.892;15.312;2024-03-25T01:10:36;1.83;;;1.23;;
3647;SDS011;1840;48.892;15.312;2024-03-25T01:13:03;2.60;;;1.27;;
3647;SDS011;1840;48.892;15.312;2024-03-25T01:15:30;1.23;;;1.00;;
3647;SDS011;1840;48.892;15.312;2024-03-25T01:17:57;1.37;;;1.10;;
3647;SDS011;1840;48.892;15.312;2024-03-25T01:20:24;1.63;;;1.20;;
3647;SDS011;1840;48.892;15.312;2024-03-25T01:22:50;1.77;;;1.43;;
3647;SDS011;1840;48.892;15.312;2024-03-25T01:25:17;2.03;;;1.53;;
3647;SDS011;1840;48.892;15.312;2024-03-25T01:27:44;2.10;;;1.53;;
3647;SDS011;1840;48.892;15.312;2024-03-25T01:30:12;3.30;;;1.70;;
3647;SDS011;1840;48.892;15.312;2024-03-25T01:32:38;1.83;;;1.30;;
3647;SDS011;1840;48.892;15.312;2024-03-25T01:35:06;2.50;;;1.63;;
3647;SDS011;1840;48.892;15.312;2024-03-25T01:37:32;1.57;;;1.20;;
3647;SDS011;1840;48.892;15.312;2024-03-25T01:40:00;1.90;;;1.40;;
3647;SDS011;1840;48.892;15.312;2024-03-25T01:42:26;2.70;;;1.60;;
3647;SDS011;1840;48.892;15.312;2024-03-25T01:44:53;1.63;;;1.40;;
3647;SDS011;1840;48.892;15.312;2024-03-25T01:47:19;4.00;;;1.57;;
3647;SDS011;1840;48.892;15.312;2024-03-25T01:49:47;7.20;;;1.30;;
3647;SDS011;1840;48.892;15.312;2024-03-25T01:52:15;1.90;;;1.40;;
3647;SDS011;1840;48.892;15.312;2024-03-25T01:54:42;2.70;;;1.47;;
3647;SDS011;1840;48.892;15.312;2024-03-25T01:57:09;3.50;;;1.47;;
3647;SDS011;1840;48.892;15.312;2024-03-25T01:59:37;2.60;;;1.43;;
3647;SDS011;1840;48.892;15.312;2024-03-25T02:02:05;2.60;;;1.43;;
3647;SDS011;1840;48.892;15.312;2024-03-25T02:04:33;2.40;;;1.87;;
3647;SDS011;1840;48.892;15.312;2024-03-25T02:06:59;2.60;;;1.63;;
3647;SDS011;1840;48.892;15.312;2024-03-25T02:09:29;3.03;;;1.90;;
3647;SDS011;1840;48.892;15.312;2024-03-25T02:11:55;2.10;;;1.83;;
3647;SDS011;1840;48.892;15.312;2024-03-25T02:14:23;3.00;;;2.00;;
3647;SDS011;1840;48.892;15.312;2024-03-25T02:16:49;2.40;;;2.03;;
3647;SDS011;1840;48.892;15.312;2024-03-25T02:19:17;2.37;;;1.80;;
3647;SDS011;1840;48.892;15.312;2024-03-25T02:21:44;2.47;;;1.83;;
3647;SDS011;1840;48.892;15.312;2024-03-25T02:24:12;3.03;;;1.93;;
3647;SDS011;1840;48.892;15.312;2024-03-25T02:26:41;2.23;;;1.80;;
3647;SDS011;1840;48.892;15.312;2024-03-25T02:29:11;2.63;;;2.20;;
3647;SDS011;1840;48.892;15.312;2024-03-25T02:31:38;3.43;;;2.37;;
3647;SDS011;1840;48.892;15.312;2024-03-25T02:34:05;3.47;;;2.20;;
3647;SDS011;1840;48.892;15.312;2024-03-25T02:36:31;4.27;;;2.37;;
3647;SDS011;1840;48.892;15.312;2024-03-25T02:38:58;3.07;;;2.30;;
3647;SDS011;1840;48.892;15.312;2024-03-25T02:41:25;3.77;;;2.10;;
3647;SDS011;1840;48.892;15.312;2024-03-25T02:43:56;4.30;;;2.57;;
3647;SDS011;1840;48.892;15.312;2024-03-25T02:46:22;2.37;;;2.10;;
3647;SDS011;1840;48.892;15.312;2024-03-25T02:48:50;5.50;;;2.73;;
3647;SDS011;1840;48.892;15.312;2024-03-25T02:51:16;4.00;;;2.77;;
3647;SDS011;1840;48.892;15.312;2024-03-25T02:53:44;5.30;;;2.50;;
3647;SDS011;1840;48.892;15.312;2024-03-25T02:56:10;2.87;;;2.40;;
3647;SDS011;1840;48.892;15.312;2024-03-25T02:58:38;2.90;;;2.27;;
3647;SDS011;1840;48.892;15.312;2024-03-25T03:01:04;6.10;;;2.90;;
3647;SDS011;1840;48.892;15.312;2024-03-25T03:03:32;5.43;;;2.70;;
3647;SDS011;1840;48.892;15.312;2024-03-25T03:05:59;4.37;;;3.13;;
3647;SDS011;1840;48.892;15.312;2024-03-25T03:08:28;2.67;;;2.20;;
3647;SDS011;1840;48.892;15.312;2024-03-25T03:10:55;3.70;;;2.40;;
3647;SDS011;1840;48.892;15.312;2024-03-25T03:13:22;3.93;;;2.50;;
3647;SDS011;1840;48.892;15.312;2024-03-25T03:15:49;3.60;;;2.20;;
3647;SDS011;1840;48.892;15.312;2024-03-25T03:18:16;3.53;;;2.70;;
3647;SDS011;1840;48.892;15.312;2024-03-25T03:20:42;4.50;;;2.40;;
3647;SDS011;1840;48.892;15.312;2024-03-25T03:23:09;5.63;;;2.87;;
3647;SDS011;1840;48.892;15.312;2024-03-25T03:25:36;3.60;;;2.23;;
3647;SDS011;1840;48.892;15.312;2024-03-25T03:28:03;4.27;;;2.57;;
3647;SDS011;1840;48.892;15.312;2024-03-25T03:30:30;3.20;;;2.57;;
3647;SDS011;1840;48.892;15.312;2024-03-25T03:32:57;3.33;;;2.70;;
3647;SDS011;1840;48.892;15.312;2024-03-25T03:35:23;3.10;;;2.20;;
3647;SDS011;1840;48.892;15.312;2024-03-25T03:37:51;2.50;;;2.07;;
3647;SDS011;1840;48.892;15.312;2024-03-25T03:40:17;3.70;;;2.33;;
3647;SDS011;1840;48.892;15.312;2024-03-25T03:42:44;3.00;;;2.30;;
3647;SDS011;1840;48.892;15.312;2024-03-25T03:45:11;3.00;;;2.30;;
3647;SDS011;1840;48.892;15.312;2024-03-25T03:47:41;4.33;;;2.60;;
3647;SDS011;1840;48.892;15.312;2024-03-25T03:50:09;3.80;;;2.43;;
3647;SDS011;1840;48.892;15.312;2024-03-25T03:52:36;2.57;;;2.20;;
3647;SDS011;1840;48.892;15.312;2024-03-25T03:55:03;4.57;;;2.80;;
3647;SDS011;1840;48.892;15.312;2024-03-25T03:57:31;3.40;;;2.63;;
3647;SDS011;1840;48.892;15.312;2024-03-25T03:59:57;2.80;;;2.33;;
3647;SDS011;1840;48.892;15.312;2024-03-25T04:02:26;2.83;;;2.30;;
3647;SDS011;1840;48.892;15.312;2024-03-25T04:04:54;3.40;;;2.73;;
3647;SDS011;1840;48.892;15.312;2024-03-25T04:07:21;3.60;;;2.70;;
3647;SDS011;1840;48.892;15.312;2024-03-25T04:09:54;3.53;;;2.80;;
3647;SDS011;1840;48.892;15.312;2024-03-25T04:12:23;4.73;;;3.00;;
3647;SDS011;1840;48.892;15.312;2024-03-25T04:14:49;4.83;;;3.47;;
3647;SDS011;1840;48.892;15.312;2024-03-25T04:17:21;7.00;;;3.23;;
3647;SDS011;1840;48.892;15.312;2024-03-25T04:19:50;4.10;;;3.10;;
3647;SDS011;1840;48.892;15.312;2024-03-25T04:22:19;4.00;;;3.03;;
3647;SDS011;1840;48.892;15.312;2024-03-25T04:24:46;6.00;;;3.60;;
3647;SDS011;1840;48.892;15.312;2024-03-25T04:27:16;4.20;;;3.43;;
3647;SDS011;1840;48.892;15.312;2024-03-25T04:29:46;5.57;;;4.10;;
3647;SDS011;1840;48.892;15.312;2024-03-25T04:32:16;7.97;;;4.47;;
3647;SDS011;1840;48.892;15.312;2024-03-25T04:34:44;4.97;;;3.40;;
3647;SDS011;1840;48.892;15.312;2024-03-25T04:37:10;4.50;;;3.53;;
3647;SDS011;1840;48.892;15.312;2024-03-25T04:39:37;4.23;;;3.30;;
3647;SDS011;1840;48.892;15.312;2024-03-25T04:42:03;6.33;;;4.03;;
3647;SDS011;1840;48.892;15.312;2024-03-25T04:44:30;8.37;;;3.90;;
3647;SDS011;1840;48.892;15.312;2024-03-25T04:46:57;9.40;;;4.60;;
3647;SDS011;1840;48.892;15.312;2024-03-25T04:49:24;5.43;;;3.60;;
3647;SDS011;1840;48.892;15.312;2024-03-25T04:51:50;9.10;;;3.70;;
3647;SDS011;1840;48.892;15.312;2024-03-25T04:54:17;5.93;;;4.30;;
3647;SDS011;1840;48.892;15.312;2024-03-25T04:56:44;5.97;;;4.40;;
3647;SDS011;1840;48.892;15.312;2024-03-25T04:59:10;5.40;;;4.10;;
3647;SDS011;1840;48.892;15.312;2024-03-25T05:01:36;6.57;;;4.90;;
3647;SDS011;1840;48.892;15.312;2024-03-25T05:04:03;7.40;;;3.80;;
3647;SDS011;1840;48.892;15.312;2024-03-25T05:06:29;7.27;;;4.10;;
3647;SDS011;1840;48.892;15.312;2024-03-25T05:08:55;5.73;;;3.97;;
3647;SDS011;1840;48.892;15.312;2024-03-25T05:11:22;6.63;;;4.00;;
3647;SDS011;1840;48.892;15.312;2024-03-25T05:13:53;7.93;;;4.30;;
3647;SDS011;1840;48.892;15.312;2024-03-25T05:16:19;7.83;;;4.47;;
3647;SDS011;1840;48.892;15.312;2024-03-25T05:18:45;6.13;;;3.70;;
3647;SDS011;1840;48.892;15.312;2024-03-25T05:21:11;7.13;;;4.53;;
3647;SDS011;1840;48.892;15.312;2024-03-25T05:23:38;6.07;;;4.20;;
3647;SDS011;1840;48.892;15.312;2024-03-25T05:26:04;5.43;;;4.33;;
3647;SDS011;1840;48.892;15.312;2024-03-25T05:28:31;6.27;;;4.50;;
3647;SDS011;1840;48.892;15.312;2024-03-25T05:31:04;5.43;;;4.20;;
3647;SDS011;1840;48.892;15.312;2024-03-25T05:33:35;4.60;;;4.10;;
3647;SDS011;1840;48.892;15.312;2024-03-25T05:36:02;7.63;;;4.43;;
3647;SDS011;1840;48.892;15.312;2024-03-25T05:38:28;6.10;;;3.90;;
3647;SDS011;1840;48.892;15.312;2024-03-25T05:40:55;10.00;;;4.77;;
3647;SDS011;1840;48.892;15.312;2024-03-25T05:43:23;6.37;;;5.30;;
3647;SDS011;1840;48.892;15.312;2024-03-25T05:45:50;5.70;;;4.50;;
3647;SDS011;1840;48.892;15.312;2024-03-25T05:48:17;7.67;;;4.77;;
3647;SDS011;1840;48.892;15.312;2024-03-25T05:50:43;5.60;;;4.50;;
3647;SDS011;1840;48.892;15.312;2024-03-25T05:53:12;8.73;;;4.70;;
3647;SDS011;1840;48.892;15.312;2024-03-25T05:55:38;5.73;;;4.43;;
3647;SDS011;1840;48.892;15.312;2024-03-25T05:58:05;7.97;;;4.63;;
3647;SDS011;1840;48.892;15.312;2024-03-25T06:00:31;8.00;;;5.23;;
3647;SDS011;1840;48.892;15.312;2024-03-25T06:02:57;5.13;;;4.10;;
3647;SDS011;1840;48.892;15.312;2024-03-25T06:05:24;6.97;;;4.10;;
3647;SDS011;1840;48.892;15.312;2024-03-25T06:07:50;6.27;;;4.20;;
3647;SDS011;1840;48.892;15.312;2024-03-25T06:10:16;5.90;;;4.17;;
3647;SDS011;1840;48.892;15.312;2024-03-25T06:12:42;5.20;;;3.67;;
3647;SDS011;1840;48.892;15.312;2024-03-25T06:15:13;6.90;;;4.67;;
3647;SDS011;1840;48.892;15.312;2024-03-25T06:17:40;5.20;;;3.80;;
3647;SDS011;1840;48.892;15.312;2024-03-25T06:20:07;5.87;;;3.70;;
3647;SDS011;1840;48.892;15.312;2024-03-25T06:22:34;6.20;;;4.40;;
3647;SDS011;1840;48.892;15.312;2024-03-25T06:25:00;6.57;;;3.60;;
3647;SDS011;1840;48.892;15.312;2024-03-25T06:27:26;5.13;;;3.87;;
3647;SDS011;1840;48.892;15.312;2024-03-25T06:29:53;4.90;;;3.63;;
3647;SDS011;1840;48.892;15.312;2024-03-25T06:32:19;6.50;;;4.13;;
3647;SDS011;1840;48.892;15.312;2024-03-25T06:35:05;4.80;;;3.50;;
3647;SDS011;1840;48.892;15.312;2024-03-25T06:37:31;6.27;;;4.23;;
3647;SDS011;1840;48.892;15.312;2024-03-25T06:39:57;5.73;;;3.70;;
3647;SDS011;1840;48.892;15.312;2024-03-25T06:42:24;4.50;;;3.63;;
3647;SDS011;1840;48.892;15.312;2024-03-25T06:44:50;4.63;;;3.50;;
3647;SDS011;1840;48.892;15.312;2024-03-25T06:47:16;12.27;;;3.87;;
3647;SDS011;1840;48.892;15.312;2024-03-25T06:49:43;4.60;;;3.40;;
3647;SDS011;1840;48.892;15.312;2024-03-25T06:52:09;4.30;;;3.47;;
3647;SDS011;1840;48.892;15.312;2024-03-25T06:54:36;5.90;;;4.00;;
3647;SDS011;1840;48.892;15.312;2024-03-25T06:57:02;5.43;;;3.83;;
3647;SDS011;1840;48.892;15.312;2024-03-25T06:59:29;4.90;;;3.43;;
3647;SDS011;1840;48.892;15.312;2024-03-25T07:01:56;6.60;;;3.60;;
3647;SDS011;1840;48.892;15.312;2024-03-25T07:04:22;4.57;;;3.57;;
3647;SDS011;1840;48.892;15.312;2024-03-25T07:06:48;6.17;;;3.37;;
3647;SDS011;1840;48.892;15.312;2024-03-25T07:09:15;4.90;;;3.20;;
3647;SDS011;1840;48.892;15.312;2024-03-25T07:11:43;4.23;;;3.47;;
3647;SDS011;1840;48.892;15.312;2024-03-25T07:14:09;4.93;;;3.10;;
3647;SDS011;1840;48.892;15.312;2024-03-25T07:16:35;6.30;;;3.30;;
3647;SDS011;1840;48.892;15.312;2024-03-25T07:19:02;4.97;;;3.40;;
3647;SDS011;1840;48.892;15.312;2024-03-25T07:21:29;6.67;;;3.17;;
3647;SDS011;1840;48.892;15.312;2024-03-25T07:23:56;4.00;;;3.30;;
3647;SDS011;1840;48.892;15.312;2024-03-25T07:26:22;9.07;;;5.10;;
3647;SDS011;1840;48.892;15.312;2024-03-25T07:28:49;4.00;;;3.20;;
3647;SDS011;1840;48.892;15.312;2024-03-25T07:31:15;6.40;;;4.00;;
3647;SDS011;1840;48.892;15.312;2024-03-25T07:33:42;8.50;;;3.33;;
3647;SDS011;1840;48.892;15.312;2024-03-25T07:36:08;5.87;;;4.00;;
3647;SDS011;1840;48.892;15.312;2024-03-25T07:38:37;5.10;;;3.37;;
3647;SDS011;1840;48.892;15.312;2024-03-25T07:41:04;5.20;;;2.83;;
3647;SDS011;1840;48.892;15.312;2024-03-25T07:43:31;4.93;;;3.13;;
3647;SDS011;1840;48.892;15.312;2024-03-25T07:45:57;5.67;;;3.20;;
3647;SDS011;1840;48.892;15.312;2024-03-25T07:48:24;4.10;;;3.10;;
3647;SDS011;1840;48.892;15.312;2024-03-25T07:50:51;4.40;;;2.90;;
3647;SDS011;1840;48.892;15.312;2024-03-25T07:53:17;5.90;;;3.40;;
3647;SDS011;1840;48.892;15.312;2024-03-25T07:55:44;4.63;;;3.00;;
3647;SDS011;1840;48.892;15.312;2024-03-25T07:58:10;4.30;;;3.10;;
3647;SDS011;1840;48.892;15.312;2024-03-25T08:00:36;7.00;;;3.90;;
3647;SDS011;1840;48.892;15.312;2024-03-25T08:03:03;5.70;;;3.73;;
3647;SDS011;1840;48.892;15.312;2024-03-25T08:05:29;7.30;;;4.03;;
3647;SDS011;1840;48.892;15.312;2024-03-25T08:07:57;5.63;;;3.30;;
3647;SDS011;1840;48.892;15.312;2024-03-25T08:10:24;4.97;;;3.10;;
3647;SDS011;1840;48.892;15.312;2024-03-25T08:12:50;6.57;;;2.90;;
3647;SDS011;1840;48.892;15.312;2024-03-25T08:15:17;10.50;;;3.40;;
3647;SDS011;1840;48.892;15.312;2024-03-25T08:17:43;5.40;;;2.50;;
3647;SDS011;1840;48.892;15.312;2024-03-25T08:20:09;3.90;;;2.63;;
3647;SDS011;1840;48.892;15.312;2024-03-25T08:22:36;4.30;;;2.60;;
3647;SDS011;1840;48.892;15.312;2024-03-25T08:25:04;9.40;;;2.93;;
3647;SDS011;1840;48.892;15.312;2024-03-25T08:27:30;6.03;;;3.00;;
3647;SDS011;1840;48.892;15.312;2024-03-25T08:29:56;4.73;;;3.03;;
3647;SDS011;1840;48.892;15.312;2024-03-25T08:32:22;8.13;;;3.37;;
3647;SDS011;1840;48.892;15.312;2024-03-25T08:34:49;5.77;;;2.60;;
3647;SDS011;1840;48.892;15.312;2024-03-25T08:37:16;2.73;;;2.20;;
3647;SDS011;1840;48.892;15.312;2024-03-25T08:39:42;3.70;;;2.20;;
3647;SDS011;1840;48.892;15.312;2024-03-25T08:42:08;3.73;;;2.10;;
3647;SDS011;1840;48.892;15.312;2024-03-25T08:44:35;3.20;;;1.90;;
3647;SDS011;1840;48.892;15.312;2024-03-25T08:47:02;3.83;;;2.30;;
3647;SDS011;1840;48.892;15.312;2024-03-25T08:49:28;3.80;;;2.00;;
3647;SDS011;1840;48.892;15.312;2024-03-25T08:51:54;4.30;;;2.10;;
3647;SDS011;1840;48.892;15.312;2024-03-25T08:54:21;3.87;;;2.10;;
3647;SDS011;1840;48.892;15.312;2024-03-25T08:56:47;5.07;;;2.00;;
3647;SDS011;1840;48.892;15.312;2024-03-25T08:59:13;3.77;;;2.07;;
3647;SDS011;1840;48.892;15.312;2024-03-25T09:01:39;4.53;;;2.00;;
3647;SDS011;1840;48.892;15.312;2024-03-25T09:04:06;3.30;;;1.93;;
3647;SDS011;1840;48.892;15.312;2024-03-25T09:06:32;3.20;;;2.10;;
3647;SDS011;1840;48.892;15.312;2024-03-25T09:08:58;2.90;;;1.90;;
3647;SDS011;1840;48.892;15.312;2024-03-25T09:11:43;4.30;;;2.20;;
3647;SDS011;1840;48.892;15.312;2024-03-25T09:14:10;3.90;;;2.77;;
3647;SDS011;1840;48.892;15.312;2024-03-25T09:16:36;6.70;;;2.00;;
3647;SDS011;1840;48.892;15.312;2024-03-25T09:19:03;4.13;;;1.80;;
3647;SDS011;1840;48.892;15.312;2024-03-25T09:21:30;4.23;;;2.10;;
3647;SDS011;1840;48.892;15.312;2024-03-25T09:23:57;2.37;;;1.90;;
3647;SDS011;1840;48.892;15.312;2024-03-25T09:26:23;4.30;;;2.00;;
3647;SDS011;1840;48.892;15.312;2024-03-25T09:28:49;4.30;;;2.27;;
3647;SDS011;1840;48.892;15.312;2024-03-25T09:31:16;2.87;;;1.70;;
3647;SDS011;1840;48.892;15.312;2024-03-25T09:33:42;3.80;;;1.83;;
3647;SDS011;1840;48.892;15.312;2024-03-25T09:36:09;2.80;;;1.87;;
3647;SDS011;1840;48.892;15.312;2024-03-25T09:38:36;4.23;;;2.30;;
3647;SDS011;1840;48.892;15.312;2024-03-25T09:41:03;8.37;;;2.93;;
3647;SDS011;1840;48.892;15.312;2024-03-25T09:43:33;5.53;;;2.30;;
3647;SDS011;1840;48.892;15.312;2024-03-25T09:46:04;3.53;;;2.30;;
3647;SDS011;1840;48.892;15.312;2024-03-25T09:48:30;8.60;;;3.83;;
3647;SDS011;1840;48.892;15.312;2024-03-25T09:50:58;8.50;;;2.00;;
3647;SDS011;1840;48.892;15.312;2024-03-25T09:53:25;4.30;;;2.17;;
3647;SDS011;1840;48.892;15.312;2024-03-25T09:55:51;5.30;;;2.53;;
3647;SDS011;1840;48.892;15.312;2024-03-25T09:58:18;7.73;;;2.93;;
3647;SDS011;1840;48.892;15.312;2024-03-25T10:00:45;6.30;;;2.23;;
3647;SDS011;1840;48.892;15.312;2024-03-25T10:03:11;3.27;;;2.27;;
3647;SDS011;1840;48.892;15.312;2024-03-25T10:05:37;3.80;;;1.87;;
3647;SDS011;1840;48.892;15.312;2024-03-25T10:08:04;6.83;;;2.43;;
3647;SDS011;1840;48.892;15.312;2024-03-25T10:10:33;8.13;;;2.53;;
3647;SDS011;1840;48.892;15.312;2024-03-25T10:12:59;6.93;;;4.57;;
3647;SDS011;1840;48.892;15.312;2024-03-25T10:15:26;3.77;;;1.97;;
3647;SDS011;1840;48.892;15.312;2024-03-25T10:17:52;4.90;;;2.10;;
3647;SDS011;1840;48.892;15.312;2024-03-25T10:20:19;4.60;;;1.97;;
3647;SDS011;1840;48.892;15.312;2024-03-25T10:22:45;4.87;;;2.20;;
3647;SDS011;1840;48.892;15.312;2024-03-25T10:25:28;5.47;;;2.20;;
3647;SDS011;1840;48.892;15.312;2024-03-25T10:27:58;3.70;;;1.53;;
3647;SDS011;1840;48.892;15.312;2024-03-25T10:30:29;6.50;;;1.80;;
3647;SDS011;1840;48.892;15.312;2024-03-25T10:33:02;4.13;;;2.40;;
3647;SDS011;1840;48.892;15.312;2024-03-25T10:35:33;2.70;;;1.60;;
3647;SDS011;1840;48.892;15.312;2024-03-25T10:38:01;4.30;;;1.47;;
3647;SDS011;1840;48.892;15.312;2024-03-25T10:40:34;3.00;;;1.77;;
3647;SDS011;1840;48.892;15.312;2024-03-25T10:43:06;2.37;;;1.50;;
3647;SDS011;1840;48.892;15.312;2024-03-25T10:45:34;13.20;;;2.50;;
3647;SDS011;1840;48.892;15.312;2024-03-25T10:48:47;3.73;;;2.20;;
3647;SDS011;1840;48.892;15.312;2024-03-25T10:50:56;5.63;;;1.60;;
3647;SDS011;1840;48.892;15.312;2024-03-25T10:53:25;5.90;;;2.40;;
3647;SDS011;1840;48.892;15.312;2024-03-25T10:55:54;3.07;;;1.87;;
3647;SDS011;1840;48.892;15.312;2024-03-25T10:58:22;3.90;;;1.87;;
3647;SDS011;1840;48.892;15.312;2024-03-25T11:00:49;6.73;;;1.80;;
3647;SDS011;1840;48.892;15.312;2024-03-25T11:03:18;3.33;;;1.80;;
3647;SDS011;1840;48.892;15.312;2024-03-25T11:05:44;3.73;;;1.87;;
3647;SDS011;1840;48.892;15.312;2024-03-25T11:10:47;3.63;;;1.60;;
3647;SDS011;1840;48.892;15.312;2024-03-25T11:13:14;2.93;;;1.50;;
3647;SDS011;1840;48.892;15.312;2024-03-25T11:15:46;3.87;;;1.90;;
3647;SDS011;1840;48.892;15.312;2024-03-25T11:18:14;3.40;;;1.83;;
3647;SDS011;1840;48.892;15.312;2024-03-25T11:20:41;4.43;;;1.80;;
3647;SDS011;1840;48.892;15.312;2024-03-25T11:23:11;4.00;;;2.00;;
3647;SDS011;1840;48.892;15.312;2024-03-25T11:25:39;2.73;;;1.60;;
3647;SDS011;1840;48.892;15.312;2024-03-25T11:28:11;4.77;;;1.53;;
3647;SDS011;1840;48.892;15.312;2024-03-25T11:30:38;4.90;;;1.70;;
3647;SDS011;1840;48.892;15.312;2024-03-25T11:33:04;3.73;;;1.57;;
3647;SDS011;1840;48.892;15.312;2024-03-25T11:35:36;5.73;;;2.03;;
3647;SDS011;1840;48.892;15.312;2024-03-25T11:38:04;5.23;;;2.03;;
3647;SDS011;1840;48.892;15.312;2024-03-25T11:40:30;2.77;;;1.43;;
3647;SDS011;1840;48.892;15.312;2024-03-25T11:42:58;10.30;;;2.90;;
3647;SDS011;1840;48.892;15.312;2024-03-25T11:45:24;4.10;;;1.80;;
3647;SDS011;1840;48.892;15.312;2024-03-25T11:47:51;3.07;;;1.70;;
3647;SDS011;1840;48.892;15.312;2024-03-25T11:50:18;2.80;;;1.50;;
3647;SDS011;1840;48.892;15.312;2024-03-25T11:52:46;4.93;;;1.80;;
3647;SDS011;1840;48.892;15.312;2024-03-25T11:55:18;3.80;;;1.70;;
3647;SDS011;1840;48.892;15.312;2024-03-25T11:57:54;5.10;;;2.00;;
3647;SDS011;1840;48.892;15.312;2024-03-25T12:00:21;6.77;;;2.67;;
3647;SDS011;1840;48.892;15.312;2024-03-25T12:02:48;7.60;;;1.83;;
3647;SDS011;1840;48.892;15.312;2024-03-25T12:05:15;5.10;;;3.10;;
3647;SDS011;1840;48.892;15.312;2024-03-25T12:07:42;3.93;;;2.03;;
3647;SDS011;1840;48.892;15.312;2024-03-25T12:10:08;3.50;;;1.83;;
3647;SDS011;1840;48.892;15.312;2024-03-25T12:12:55;9.23;;;2.30;;
3647;SDS011;1840;48.892;15.312;2024-03-25T12:15:21;6.20;;;2.70;;
3647;SDS011;1840;48.892;15.312;2024-03-25T12:17:48;5.77;;;1.90;;
3647;SDS011;1840;48.892;15.312;2024-03-25T12:20:16;4.53;;;1.80;;
3647;SDS011;1840;48.892;15.312;2024-03-25T12:22:43;4.03;;;1.90;;
3647;SDS011;1840;48.892;15.312;2024-03-25T12:25:10;3.43;;;2.07;;
3647;SDS011;1840;48.892;15.312;2024-03-25T12:27:38;4.80;;;2.03;;
3647;SDS011;1840;48.892;15.312;2024-03-25T12:30:05;3.63;;;1.63;;
3647;SDS011;1840;48.892;15.312;2024-03-25T12:32:41;4.77;;;2.27;;
3647;SDS011;1840;48.892;15.312;2024-03-25T12:35:09;3.30;;;1.50;;
3647;SDS011;1840;48.892;15.312;2024-03-25T12:37:37;5.37;;;2.30;;
3647;SDS011;1840;48.892;15.312;2024-03-25T12:40:05;7.97;;;2.80;;
3647;SDS011;1840;48.892;15.312;2024-03-25T12:42:33;6.83;;;2.83;;
3647;SDS011;1840;48.892;15.312;2024-03-25T12:44:59;7.67;;;2.13;;
3647;SDS011;1840;48.892;15.312;2024-03-25T12:47:26;4.70;;;1.70;;
3647;SDS011;1840;48.892;15.312;2024-03-25T12:49:52;5.50;;;1.83;;
3647;SDS011;1840;48.892;15.312;2024-03-25T12:52:19;3.33;;;1.67;;
3647;SDS011;1840;48.892;15.312;2024-03-25T12:54:45;4.67;;;1.70;;
3647;SDS011;1840;48.892;15.312;2024-03-25T12:57:11;6.77;;;2.20;;
3647;SDS011;1840;48.892;15.312;2024-03-25T12:59:38;3.57;;;2.07;;
3647;SDS011;1840;48.892;15.312;2024-03-25T13:02:04;4.80;;;1.47;;
3647;SDS011;1840;48.892;15.312;2024-03-25T13:04:34;4.83;;;1.90;;
3647;SDS011;1840;48.892;15.312;2024-03-25T13:07:01;3.67;;;1.83;;
3647;SDS011;1840;48.892;15.312;2024-03-25T13:09:29;4.37;;;1.87;;
3647;SDS011;1840;48.892;15.312;2024-03-25T13:11:57;3.80;;;1.63;;
3647;SDS011;1840;48.892;15.312;2024-03-25T13:14:24;5.23;;;2.03;;
3647;SDS011;1840;48.892;15.312;2024-03-25T13:16:51;4.30;;;1.90;;
3647;SDS011;1840;48.892;15.312;2024-03-25T13:19:17;4.93;;;1.90;;
3647;SDS011;1840;48.892;15.312;2024-03-25T13:21:43;3.63;;;1.93;;
3647;SDS011;1840;48.892;15.312;2024-03-25T13:24:10;3.87;;;2.43;;
3647;SDS011;1840;48.892;15.312;2024-03-25T13:26:36;3.60;;;2.00;;
3647;SDS011;1840;48.892;15.312;2024-03-25T13:29:02;4.83;;;1.80;;
3647;SDS011;1840;48.892;15.312;2024-03-25T13:31:28;3.87;;;1.63;;
3647;SDS011;1840;48.892;15.312;2024-03-25T13:33:55;2.83;;;1.73;;
3647;SDS011;1840;48.892;15.312;2024-03-25T13:36:22;4.33;;;1.93;;
3647;SDS011;1840;48.892;15.312;2024-03-25T13:38:48;2.70;;;1.90;;
3647;SDS011;1840;48.892;15.312;2024-03-25T13:41:16;4.10;;;1.90;;
3647;SDS011;1840;48.892;15.312;2024-03-25T13:43:43;4.43;;;1.50;;
3647;SDS011;1840;48.892;15.312;2024-03-25T13:46:09;2.70;;;1.40;;
3647;SDS011;1840;48.892;15.312;2024-03-25T13:48:36;2.87;;;1.60;;
3647;SDS011;1840;48.892;15.312;2024-03-25T13:51:02;3.27;;;1.70;;
3647;SDS011;1840;48.892;15.312;2024-03-25T13:53:29;4.20;;;1.60;;
3647;SDS011;1840;48.892;15.312;2024-03-25T13:55:55;3.87;;;1.80;;
3647;SDS011;1840;48.892;15.312;2024-03-25T13:58:22;3.80;;;2.03;;
3647;SDS011;1840;48.892;15.312;2024-03-25T14:00:48;4.90;;;2.07;;
3647;SDS011;1840;48.892;15.312;2024-03-25T14:03:14;5.37;;;1.73;;
3647;SDS011;1840;48.892;15.312;2024-03-25T14:05:40;3.37;;;1.90;;
3647;SDS011;1840;48.892;15.312;2024-03-25T14:08:07;4.03;;;1.70;;
3647;SDS011;1840;48.892;15.312;2024-03-25T14:10:33;7.10;;;2.50;;
3647;SDS011;1840;48.892;15.312;2024-03-25T14:13:00;3.27;;;1.60;;
3647;SDS011;1840;48.892;15.312;2024-03-25T14:15:26;5.03;;;1.90;;
3647;SDS011;1840;48.892;15.312;2024-03-25T14:17:52;3.53;;;1.73;;
3647;SDS011;1840;48.892;15.312;2024-03-25T14:20:19;11.20;;;2.43;;
3647;SDS011;1840;48.892;15.312;2024-03-25T14:22:45;8.70;;;1.60;;
3647;SDS011;1840;48.892;15.312;2024-03-25T14:25:11;4.30;;;1.93;;
3647;SDS011;1840;48.892;15.312;2024-03-25T14:27:37;4.63;;;2.07;;
3647;SDS011;1840;48.892;15.312;2024-03-25T14:30:04;3.67;;;1.90;;
3647;SDS011;1840;48.892;15.312;2024-03-25T14:32:30;5.00;;;1.93;;
3647;SDS011;1840;48.892;15.312;2024-03-25T14:34:57;4.70;;;1.40;;
3647;SDS011;1840;48.892;15.312;2024-03-25T14:37:23;5.00;;;1.60;;
3647;SDS011;1840;48.892;15.312;2024-03-25T14:39:50;2.43;;;1.40;;
3647;SDS011;1840;48.892;15.312;2024-03-25T14:42:16;3.00;;;1.80;;
3647;SDS011;1840;48.892;15.312;2024-03-25T14:44:42;3.27;;;1.53;;
3647;SDS011;1840;48.892;15.312;2024-03-25T14:47:08;5.67;;;2.67;;
3647;SDS011;1840;48.892;15.312;2024-03-25T14:49:35;3.20;;;1.50;;
3647;SDS011;1840;48.892;15.312;2024-03-25T14:52:01;5.13;;;2.20;;
3647;SDS011;1840;48.892;15.312;2024-03-25T14:54:32;3.47;;;1.60;;
3647;SDS011;1840;48.892;15.312;2024-03-25T14:56:59;2.60;;;1.40;;
3647;SDS011;1840;48.892;15.312;2024-03-25T14:59:27;2.63;;;1.50;;
3647;SDS011;1840;48.892;15.312;2024-03-25T15:01:53;5.93;;;1.43;;
3647;SDS011;1840;48.892;15.312;2024-03-25T15:04:20;3.50;;;1.73;;